DAL5649 KJFK-KCMH
Flight info
| Callsign | DAL5649 |
|---|---|
| Flight time | 1h 16m |
| Altitude | 30000 |
| Route | RBV Q430 AIR CLPRR3 |
| Aircraft | E75L/M-SDE3GILORVW/S |
Departure
| Time | 2026-05-09 13:05 |
|---|---|
| Airport | John F. Kennedy International Airport (KJFK) |
Arrival
| Time | 2026-05-09 14:21 |
|---|---|
| Airport | John Glenn Columbus International Airport (KCMH) |
| Time | Latitude | Longitude | Altitude | Speed | Heading |
|---|---|---|---|---|---|
| 2026-05-09 12:40 | 40.64533 | -73.77475 | 19 ft | 0 kts | 341° |
| 2026-05-09 12:47 | 40.64521 | -73.77472 | 19 ft | 2 kts | 7° |
| 2026-05-09 12:47 | 40.64506 | -73.77484 | 19 ft | 3 kts | 59° |
| 2026-05-09 12:47 | 40.64502 | -73.77495 | 19 ft | 0 kts | 71° |
| 2026-05-09 12:49 | 40.64502 | -73.77494 | 19 ft | 0 kts | 71° |
| 2026-05-09 12:49 | 40.64506 | -73.77468 | 19 ft | 1 kts | 95° |
| 2026-05-09 12:49 | 40.64492 | -73.77426 | 19 ft | 10 kts | 118° |
| 2026-05-09 12:50 | 40.64474 | -73.77324 | 19 ft | 12 kts | 88° |
| 2026-05-09 12:50 | 40.64472 | -73.77260 | 19 ft | 8 kts | 102° |
| 2026-05-09 12:50 | 40.64454 | -73.77182 | 19 ft | 7 kts | 107° |
| 2026-05-09 12:50 | 40.64451 | -73.77171 | 19 ft | 1 kts | 110° |
| 2026-05-09 12:51 | 40.64443 | -73.77142 | 19 ft | 5 kts | 110° |
| 2026-05-09 12:51 | 40.64441 | -73.77135 | 19 ft | 0 kts | 110° |
| 2026-05-09 12:51 | 40.64441 | -73.77134 | 19 ft | 0 kts | 110° |
| 2026-05-09 12:55 | 40.64440 | -73.77133 | 19 ft | 0 kts | 110° |
| 2026-05-09 12:55 | 40.64425 | -73.77072 | 19 ft | 11 kts | 107° |
| 2026-05-09 12:55 | 40.64460 | -73.76981 | 19 ft | 14 kts | 16° |
| 2026-05-09 12:56 | 40.64570 | -73.76918 | 19 ft | 20 kts | 33° |
| 2026-05-09 12:56 | 40.64683 | -73.76818 | 19 ft | 20 kts | 34° |
| 2026-05-09 12:56 | 40.64800 | -73.76724 | 19 ft | 19 kts | 30° |
| 2026-05-09 12:56 | 40.64870 | -73.76673 | 19 ft | 2 kts | 25° |
| 2026-05-09 12:57 | 40.64883 | -73.76665 | 19 ft | 6 kts | 25° |
| 2026-05-09 12:57 | 40.64911 | -73.76648 | 19 ft | 2 kts | 25° |
| 2026-05-09 12:57 | 40.64912 | -73.76647 | 19 ft | 0 kts | 25° |
| 2026-05-09 12:57 | 40.64917 | -73.76644 | 19 ft | 4 kts | 26° |
| 2026-05-09 12:58 | 40.64950 | -73.76622 | 19 ft | 4 kts | 26° |
| 2026-05-09 12:58 | 40.64961 | -73.76616 | 19 ft | 5 kts | 26° |
| 2026-05-09 12:58 | 40.65001 | -73.76588 | 19 ft | 3 kts | 30° |
| 2026-05-09 12:58 | 40.65004 | -73.76585 | 19 ft | 0 kts | 30° |
| 2026-05-09 12:59 | 40.65050 | -73.76550 | 19 ft | 10 kts | 31° |
| 2026-05-09 12:59 | 40.65058 | -73.76544 | 19 ft | 0 kts | 31° |
| 2026-05-09 13:00 | 40.65071 | -73.76526 | 19 ft | 12 kts | 52° |
| 2026-05-09 13:00 | 40.65083 | -73.76459 | 19 ft | 1 kts | 122° |
| 2026-05-09 13:00 | 40.65080 | -73.76454 | 19 ft | 4 kts | 122° |
| 2026-05-09 13:01 | 40.65067 | -73.76426 | 19 ft | 5 kts | 122° |
| 2026-05-09 13:01 | 40.65047 | -73.76390 | 19 ft | 1 kts | 134° |
| 2026-05-09 13:01 | 40.65004 | -73.76354 | 19 ft | 17 kts | 168° |
| 2026-05-09 13:01 | 40.64987 | -73.76359 | 19 ft | 0 kts | 220° |
| 2026-05-09 13:02 | 40.64977 | -73.76372 | 19 ft | 1 kts | 226° |
| 2026-05-09 13:02 | 40.64967 | -73.76384 | 19 ft | 4 kts | 223° |
| 2026-05-09 13:03 | 40.64958 | -73.76394 | 19 ft | 0 kts | 212° |
| 2026-05-09 13:04 | 40.64957 | -73.76394 | 19 ft | 0 kts | 212° |
| 2026-05-09 13:04 | 40.64949 | -73.76401 | 19 ft | 15 kts | 212° |
| 2026-05-09 13:04 | 40.64606 | -73.76686 | 19 ft | 104 kts | 207° |
| 2026-05-09 13:05 | 40.63705 | -73.77315 | 212 ft | 177 kts | 208° |
| 2026-05-09 13:05 | 40.62458 | -73.78187 | 802 ft | 236 kts | 207° |
| 2026-05-09 13:05 | 40.60824 | -73.79326 | 1153 ft | 290 kts | 206° |
| 2026-05-09 13:05 | 40.59056 | -73.80554 | 1535 ft | 281 kts | 206° |
| 2026-05-09 13:06 | 40.57487 | -73.81765 | 1893 ft | 240 kts | 218° |
| 2026-05-09 13:06 | 40.56640 | -73.83330 | 2551 ft | 186 kts | 243° |
| 2026-05-09 13:06 | 40.56220 | -73.84876 | 3250 ft | 174 kts | 250° |
| 2026-05-09 13:06 | 40.55882 | -73.86350 | 3936 ft | 161 kts | 249° |
| 2026-05-09 13:07 | 40.55303 | -73.87479 | 4554 ft | 139 kts | 217° |
| 2026-05-09 13:07 | 40.54546 | -73.88095 | 5100 ft | 128 kts | 207° |
| 2026-05-09 13:07 | 40.53644 | -73.88744 | 5317 ft | 173 kts | 206° |
| 2026-05-09 13:07 | 40.52362 | -73.89637 | 5654 ft | 234 kts | 206° |
| 2026-05-09 13:08 | 40.51027 | -73.90561 | 7739 ft | 179 kts | 206° |
| 2026-05-09 13:08 | 40.50022 | -73.91269 | 9769 ft | 153 kts | 206° |
| 2026-05-09 13:08 | 40.48967 | -73.92011 | 10257 ft | 199 kts | 206° |
| 2026-05-09 13:08 | 40.47598 | -73.92952 | 10483 ft | 251 kts | 206° |
| 2026-05-09 13:09 | 40.45852 | -73.94135 | 10677 ft | 305 kts | 206° |
| 2026-05-09 13:09 | 40.43834 | -73.95489 | 10848 ft | 342 kts | 206° |
| 2026-05-09 13:09 | 40.41800 | -73.96852 | 10949 ft | 327 kts | 206° |
| 2026-05-09 13:09 | 40.39760 | -73.98218 | 11041 ft | 325 kts | 206° |
| 2026-05-09 13:10 | 40.37948 | -73.99880 | 11158 ft | 317 kts | 224° |
| 2026-05-09 13:10 | 40.36799 | -74.02209 | 11587 ft | 295 kts | 245° |
| 2026-05-09 13:10 | 40.36270 | -74.04710 | 12039 ft | 275 kts | 256° |
| 2026-05-09 13:10 | 40.35992 | -74.07121 | 12480 ft | 261 kts | 260° |
| 2026-05-09 13:11 | 40.35782 | -74.09462 | 12927 ft | 260 kts | 261° |
| 2026-05-09 13:11 | 40.35561 | -74.11875 | 13391 ft | 274 kts | 261° |
| 2026-05-09 13:11 | 40.35301 | -74.14415 | 13856 ft | 288 kts | 259° |
| 2026-05-09 13:11 | 40.34991 | -74.17070 | 14317 ft | 301 kts | 258° |
| 2026-05-09 13:12 | 40.34607 | -74.19838 | 14778 ft | 314 kts | 256° |
| 2026-05-09 13:12 | 40.34049 | -74.22654 | 15236 ft | 325 kts | 251° |
| 2026-05-09 13:12 | 40.33255 | -74.25496 | 15697 ft | 339 kts | 246° |
| 2026-05-09 13:12 | 40.32226 | -74.28343 | 16157 ft | 353 kts | 241° |
| 2026-05-09 13:13 | 40.31004 | -74.31159 | 16611 ft | 366 kts | 236° |
| 2026-05-09 13:13 | 40.29600 | -74.33998 | 17075 ft | 377 kts | 233° |
| 2026-05-09 13:13 | 40.28053 | -74.36842 | 17542 ft | 387 kts | 231° |
| 2026-05-09 13:13 | 40.26407 | -74.39677 | 18004 ft | 396 kts | 230° |
| 2026-05-09 13:14 | 40.24672 | -74.42531 | 18465 ft | 403 kts | 230° |
| 2026-05-09 13:14 | 40.22888 | -74.45382 | 18919 ft | 408 kts | 230° |
| 2026-05-09 13:16 | 40.18444 | -74.68809 | 21910 ft | 347 kts | 262° |
| 2026-05-09 13:16 | 40.18249 | -74.71981 | 22216 ft | 353 kts | 262° |
| 2026-05-09 13:16 | 40.18047 | -74.75166 | 22517 ft | 358 kts | 262° |
| 2026-05-09 13:16 | 40.17831 | -74.78431 | 22816 ft | 362 kts | 262° |
| 2026-05-09 13:17 | 40.17600 | -74.81743 | 23118 ft | 367 kts | 262° |
| 2026-05-09 13:17 | 40.17359 | -74.85084 | 23420 ft | 371 kts | 262° |
| 2026-05-09 13:17 | 40.17107 | -74.88455 | 23722 ft | 374 kts | 261° |
| 2026-05-09 13:17 | 40.16847 | -74.91862 | 24026 ft | 377 kts | 261° |
| 2026-05-09 13:18 | 40.16581 | -74.95277 | 24327 ft | 379 kts | 261° |
| 2026-05-09 13:18 | 40.16310 | -74.98695 | 24625 ft | 381 kts | 261° |
| 2026-05-09 13:18 | 40.16029 | -75.02178 | 24925 ft | 384 kts | 262° |
| 2026-05-09 13:18 | 40.15746 | -75.05652 | 25223 ft | 386 kts | 262° |
| 2026-05-09 13:19 | 40.15460 | -75.09156 | 25525 ft | 387 kts | 262° |
| 2026-05-09 13:19 | 40.15169 | -75.12668 | 25824 ft | 389 kts | 263° |
| 2026-05-09 13:19 | 40.14878 | -75.16142 | 26119 ft | 392 kts | 263° |
| 2026-05-09 13:19 | 40.14582 | -75.19720 | 26423 ft | 397 kts | 263° |
| 2026-05-09 13:20 | 40.14281 | -75.23329 | 26725 ft | 402 kts | 263° |
| 2026-05-09 13:20 | 40.13980 | -75.26960 | 27027 ft | 407 kts | 262° |
| 2026-05-09 13:20 | 40.13667 | -75.30692 | 27332 ft | 411 kts | 262° |
| 2026-05-09 13:20 | 40.13353 | -75.34403 | 27633 ft | 414 kts | 262° |
| 2026-05-09 13:21 | 40.13033 | -75.38169 | 27935 ft | 417 kts | 262° |
| 2026-05-09 13:21 | 40.12820 | -75.40655 | 28134 ft | 419 kts | 262° |
| 2026-05-09 13:21 | 40.12494 | -75.44468 | 28429 ft | 422 kts | 262° |
| 2026-05-09 13:21 | 40.12166 | -75.48283 | 28690 ft | 425 kts | 262° |
| 2026-05-09 13:22 | 40.11726 | -75.53380 | 29024 ft | 429 kts | 262° |
| 2026-05-09 13:22 | 40.11386 | -75.57302 | 29278 ft | 432 kts | 262° |
| 2026-05-09 13:22 | 40.11157 | -75.59939 | 29448 ft | 434 kts | 262° |
| 2026-05-09 13:23 | 40.09760 | -75.75814 | 29962 ft | 452 kts | 262° |
| 2026-05-09 13:23 | 40.09394 | -75.79932 | 29964 ft | 459 kts | 261° |
| 2026-05-09 13:24 | 40.08644 | -75.88319 | 29963 ft | 468 kts | 261° |
| 2026-05-09 13:24 | 40.08273 | -75.92486 | 29959 ft | 454 kts | 261° |
| 2026-05-09 13:24 | 40.07917 | -75.96514 | 29955 ft | 441 kts | 261° |
| 2026-05-09 13:25 | 40.07216 | -76.04344 | 29953 ft | 432 kts | 261° |
| 2026-05-09 13:26 | 40.06125 | -76.16206 | 29958 ft | 445 kts | 261° |
| 2026-05-09 13:26 | 40.05382 | -76.24221 | 29947 ft | 446 kts | 260° |
| 2026-05-09 13:27 | 40.04637 | -76.32212 | 29941 ft | 442 kts | 260° |
| 2026-05-09 13:27 | 40.03894 | -76.40136 | 29942 ft | 439 kts | 260° |
| 2026-05-09 13:28 | 40.03147 | -76.48008 | 29937 ft | 435 kts | 261° |
| 2026-05-09 13:28 | 40.02404 | -76.55816 | 29934 ft | 432 kts | 261° |
| 2026-05-09 13:29 | 40.01661 | -76.63564 | 29934 ft | 430 kts | 261° |
| 2026-05-09 13:29 | 40.00912 | -76.71308 | 29934 ft | 429 kts | 261° |
| 2026-05-09 13:30 | 40.00165 | -76.78968 | 29934 ft | 427 kts | 260° |
| 2026-05-09 13:30 | 39.99411 | -76.86646 | 29934 ft | 427 kts | 260° |
| 2026-05-09 13:31 | 39.98652 | -76.94318 | 29934 ft | 426 kts | 260° |
| 2026-05-09 13:31 | 39.97890 | -77.01967 | 29934 ft | 425 kts | 260° |
| 2026-05-09 13:32 | 39.97123 | -77.09611 | 29934 ft | 425 kts | 260° |
| 2026-05-09 13:32 | 39.95959 | -77.21114 | 29934 ft | 429 kts | 260° |
| 2026-05-09 13:33 | 39.95305 | -77.28866 | 29933 ft | 434 kts | 263° |
| 2026-05-09 13:33 | 39.95164 | -77.36800 | 29934 ft | 440 kts | 270° |
| 2026-05-09 13:34 | 39.95384 | -77.44844 | 29936 ft | 450 kts | 272° |
| 2026-05-09 13:34 | 39.95692 | -77.53041 | 29936 ft | 460 kts | 274° |
| 2026-05-09 13:35 | 39.96012 | -77.61454 | 29937 ft | 466 kts | 275° |
| 2026-05-09 13:35 | 39.96319 | -77.69878 | 29934 ft | 463 kts | 275° |
| 2026-05-09 13:36 | 39.96603 | -77.78221 | 29933 ft | 458 kts | 275° |
| 2026-05-09 13:36 | 39.96861 | -77.86433 | 29932 ft | 453 kts | 274° |
| 2026-05-09 13:37 | 39.97099 | -77.94615 | 29932 ft | 449 kts | 274° |
| 2026-05-09 13:37 | 39.97327 | -78.02699 | 29932 ft | 445 kts | 274° |
| 2026-05-09 13:38 | 39.97552 | -78.10762 | 29928 ft | 444 kts | 273° |
| 2026-05-09 13:38 | 39.97769 | -78.18811 | 29928 ft | 445 kts | 273° |
| 2026-05-09 13:39 | 39.97983 | -78.26944 | 29928 ft | 452 kts | 273° |
| 2026-05-09 13:39 | 39.98203 | -78.35165 | 29922 ft | 459 kts | 271° |
| 2026-05-09 13:40 | 39.98410 | -78.43489 | 29920 ft | 459 kts | 270° |
| 2026-05-09 13:40 | 39.98609 | -78.51802 | 29918 ft | 457 kts | 269° |
| 2026-05-09 13:41 | 39.98802 | -78.59979 | 29912 ft | 445 kts | 269° |
| 2026-05-09 13:41 | 39.98982 | -78.67970 | 29911 ft | 438 kts | 268° |
| 2026-05-09 13:42 | 39.99149 | -78.75893 | 29913 ft | 438 kts | 269° |
| 2026-05-09 13:42 | 39.99308 | -78.83781 | 29908 ft | 431 kts | 269° |
| 2026-05-09 13:43 | 39.99461 | -78.91507 | 29905 ft | 422 kts | 269° |
| 2026-05-09 13:43 | 39.99609 | -78.99154 | 29905 ft | 423 kts | 269° |
| 2026-05-09 13:44 | 39.99750 | -79.06777 | 29905 ft | 423 kts | 269° |
| 2026-05-09 13:44 | 39.99890 | -79.14439 | 29904 ft | 421 kts | 269° |
| 2026-05-09 13:45 | 40.00025 | -79.22077 | 29904 ft | 420 kts | 269° |
| 2026-05-09 13:45 | 40.00154 | -79.29688 | 29901 ft | 419 kts | 269° |
| 2026-05-09 13:46 | 40.00279 | -79.37285 | 29900 ft | 419 kts | 268° |
| 2026-05-09 13:46 | 40.00402 | -79.44863 | 29901 ft | 420 kts | 268° |
| 2026-05-09 13:47 | 40.00516 | -79.52481 | 29895 ft | 420 kts | 269° |
| 2026-05-09 13:47 | 40.00629 | -79.60131 | 29904 ft | 420 kts | 268° |
| 2026-05-09 13:48 | 40.00734 | -79.67692 | 29906 ft | 422 kts | 268° |
| 2026-05-09 13:48 | 40.00835 | -79.75375 | 29912 ft | 422 kts | 268° |
| 2026-05-09 13:49 | 40.00931 | -79.83035 | 29914 ft | 422 kts | 268° |
| 2026-05-09 13:49 | 40.01022 | -79.90706 | 29917 ft | 422 kts | 268° |
| 2026-05-09 13:50 | 40.01108 | -79.98357 | 29916 ft | 421 kts | 268° |
| 2026-05-09 13:50 | 40.01188 | -80.06010 | 29918 ft | 422 kts | 268° |
| 2026-05-09 13:51 | 40.01262 | -80.13610 | 29921 ft | 425 kts | 268° |
| 2026-05-09 13:51 | 40.01332 | -80.21394 | 29925 ft | 431 kts | 268° |
| 2026-05-09 13:52 | 40.01398 | -80.29273 | 29925 ft | 435 kts | 268° |
| 2026-05-09 13:52 | 40.01460 | -80.37173 | 29925 ft | 437 kts | 268° |
| 2026-05-09 13:53 | 40.01518 | -80.45112 | 29911 ft | 437 kts | 268° |
| 2026-05-09 13:53 | 40.01570 | -80.53037 | 29905 ft | 436 kts | 268° |
| 2026-05-09 13:54 | 40.01617 | -80.60910 | 29905 ft | 433 kts | 268° |
| 2026-05-09 13:54 | 40.01657 | -80.68689 | 29893 ft | 430 kts | 268° |
| 2026-05-09 13:55 | 40.01687 | -80.76496 | 29888 ft | 428 kts | 267° |
| 2026-05-09 13:55 | 40.01450 | -80.80343 | 29734 ft | 428 kts | 259° |
| 2026-05-09 13:55 | 40.00850 | -80.84176 | 29319 ft | 433 kts | 254° |
| 2026-05-09 13:56 | 40.00010 | -80.87969 | 28902 ft | 437 kts | 250° |
| 2026-05-09 13:56 | 39.99015 | -80.91743 | 28483 ft | 442 kts | 247° |
| 2026-05-09 13:56 | 39.97923 | -80.95507 | 28063 ft | 447 kts | 246° |
| 2026-05-09 13:56 | 39.96782 | -80.99239 | 27816 ft | 447 kts | 245° |
| 2026-05-09 13:57 | 39.95594 | -81.03022 | 27717 ft | 444 kts | 245° |
| 2026-05-09 13:57 | 39.94433 | -81.06678 | 27683 ft | 440 kts | 245° |
| 2026-05-09 13:57 | 39.93263 | -81.10352 | 27673 ft | 437 kts | 244° |
| 2026-05-09 13:57 | 39.92103 | -81.14000 | 27666 ft | 436 kts | 244° |
| 2026-05-09 13:58 | 39.90947 | -81.17645 | 27664 ft | 434 kts | 245° |
| 2026-05-09 13:58 | 39.89802 | -81.21276 | 27507 ft | 435 kts | 245° |
| 2026-05-09 13:58 | 39.88649 | -81.24948 | 27076 ft | 440 kts | 245° |
| 2026-05-09 13:58 | 39.87503 | -81.28618 | 26434 ft | 429 kts | 245° |
| 2026-05-09 13:59 | 39.86412 | -81.32144 | 25696 ft | 408 kts | 245° |
| 2026-05-09 13:59 | 39.85380 | -81.35503 | 24947 ft | 393 kts | 245° |
| 2026-05-09 13:59 | 39.84381 | -81.38757 | 24193 ft | 380 kts | 245° |
| 2026-05-09 13:59 | 39.83411 | -81.41911 | 23439 ft | 370 kts | 245° |
| 2026-05-09 14:00 | 39.82469 | -81.44974 | 22688 ft | 361 kts | 245° |
| 2026-05-09 14:00 | 39.82170 | -81.45959 | 22443 ft | 358 kts | 245° |
| 2026-05-09 14:00 | 39.80692 | -81.50894 | 21193 ft | 346 kts | 245° |
| 2026-05-09 14:00 | 39.79837 | -81.53787 | 20441 ft | 339 kts | 246° |
| 2026-05-09 14:01 | 39.79000 | -81.56624 | 19691 ft | 333 kts | 246° |
| 2026-05-09 14:01 | 39.78180 | -81.59406 | 18940 ft | 326 kts | 246° |
| 2026-05-09 14:01 | 39.77377 | -81.62136 | 18188 ft | 320 kts | 246° |
| 2026-05-09 14:01 | 39.76588 | -81.64821 | 17437 ft | 315 kts | 246° |
| 2026-05-09 14:02 | 39.75811 | -81.67462 | 16685 ft | 311 kts | 246° |
| 2026-05-09 14:02 | 39.75046 | -81.70062 | 15937 ft | 307 kts | 247° |
| 2026-05-09 14:02 | 39.74287 | -81.72639 | 15184 ft | 303 kts | 246° |
| 2026-05-09 14:02 | 39.73541 | -81.75169 | 14510 ft | 307 kts | 246° |
| 2026-05-09 14:03 | 39.72772 | -81.77769 | 13956 ft | 310 kts | 247° |
| 2026-05-09 14:03 | 39.71994 | -81.80398 | 13411 ft | 312 kts | 247° |
| 2026-05-09 14:03 | 39.71223 | -81.83005 | 12908 ft | 305 kts | 247° |
| 2026-05-09 14:03 | 39.70462 | -81.85582 | 12403 ft | 300 kts | 247° |
| 2026-05-09 14:04 | 39.69721 | -81.88088 | 11900 ft | 294 kts | 247° |
| 2026-05-09 14:04 | 39.69001 | -81.90521 | 11403 ft | 290 kts | 247° |
| 2026-05-09 14:04 | 39.68286 | -81.92934 | 11000 ft | 282 kts | 247° |
| 2026-05-09 14:04 | 39.67597 | -81.95261 | 10902 ft | 271 kts | 247° |
| 2026-05-09 14:05 | 39.66932 | -81.97504 | 10869 ft | 261 kts | 247° |
| 2026-05-09 14:05 | 39.66292 | -81.99660 | 10861 ft | 251 kts | 247° |
| 2026-05-09 14:05 | 39.65676 | -82.01735 | 10856 ft | 242 kts | 246° |
| 2026-05-09 14:05 | 39.65065 | -82.03783 | 10551 ft | 247 kts | 246° |
| 2026-05-09 14:06 | 39.64436 | -82.05886 | 10209 ft | 253 kts | 246° |
| 2026-05-09 14:06 | 39.63793 | -82.08034 | 9861 ft | 258 kts | 246° |
| 2026-05-09 14:06 | 39.63203 | -82.10251 | 9492 ft | 264 kts | 255° |
| 2026-05-09 14:06 | 39.63247 | -82.12646 | 9158 ft | 271 kts | 278° |
| 2026-05-09 14:07 | 39.63888 | -82.14948 | 8989 ft | 270 kts | 292° |
| 2026-05-09 14:07 | 39.64803 | -82.17056 | 8896 ft | 265 kts | 299° |
| 2026-05-09 14:07 | 39.65844 | -82.19050 | 8543 ft | 268 kts | 303° |
| 2026-05-09 14:07 | 39.66949 | -82.20996 | 8034 ft | 267 kts | 304° |
| 2026-05-09 14:08 | 39.67686 | -82.22254 | 7580 ft | 261 kts | 305° |
| 2026-05-09 14:08 | 39.68786 | -82.24109 | 6823 ft | 255 kts | 305° |
| 2026-05-09 14:08 | 39.69853 | -82.25917 | 6074 ft | 251 kts | 305° |
| 2026-05-09 14:08 | 39.71235 | -82.28288 | 5056 ft | 246 kts | 304° |
| 2026-05-09 14:09 | 39.71924 | -82.29485 | 4516 ft | 244 kts | 304° |
| 2026-05-09 14:09 | 39.72959 | -82.31153 | 4048 ft | 230 kts | 309° |
| 2026-05-09 14:09 | 39.73995 | -82.32556 | 3994 ft | 201 kts | 313° |
| 2026-05-09 14:09 | 39.74947 | -82.33748 | 3978 ft | 182 kts | 314° |
| 2026-05-09 14:10 | 39.76792 | -82.35932 | 4003 ft | 184 kts | 316° |
| 2026-05-09 14:10 | 39.77782 | -82.37053 | 4006 ft | 191 kts | 316° |
| 2026-05-09 14:10 | 39.78806 | -82.38189 | 4005 ft | 197 kts | 317° |
| 2026-05-09 14:11 | 39.79868 | -82.39352 | 4003 ft | 202 kts | 317° |
| 2026-05-09 14:11 | 39.80960 | -82.40542 | 4002 ft | 207 kts | 318° |
| 2026-05-09 14:11 | 39.82072 | -82.41747 | 4000 ft | 208 kts | 318° |
| 2026-05-09 14:11 | 39.83173 | -82.42937 | 3993 ft | 203 kts | 318° |
| 2026-05-09 14:12 | 39.84231 | -82.44079 | 3991 ft | 197 kts | 318° |
| 2026-05-09 14:12 | 39.85257 | -82.45188 | 4022 ft | 186 kts | 318° |
| 2026-05-09 14:12 | 39.86229 | -82.46238 | 3989 ft | 177 kts | 317° |
| 2026-05-09 14:12 | 39.87151 | -82.47236 | 3984 ft | 169 kts | 317° |
| 2026-05-09 14:13 | 39.88042 | -82.48203 | 3993 ft | 167 kts | 317° |
| 2026-05-09 14:14 | 39.94945 | -82.56052 | 4066 ft | 204 kts | 308° |
| 2026-05-09 14:15 | 39.95789 | -82.57471 | 4046 ft | 189 kts | 304° |
| 2026-05-09 14:15 | 39.96511 | -82.58815 | 4036 ft | 174 kts | 301° |
| 2026-05-09 14:15 | 39.97148 | -82.60107 | 3994 ft | 166 kts | 299° |
| 2026-05-09 14:15 | 39.97723 | -82.61365 | 3986 ft | 158 kts | 297° |
| 2026-05-09 14:16 | 39.98191 | -82.62616 | 3985 ft | 152 kts | 290° |
| 2026-05-09 14:16 | 39.98523 | -82.63918 | 3990 ft | 147 kts | 282° |
| 2026-05-09 14:16 | 39.98733 | -82.65185 | 3986 ft | 142 kts | 277° |
| 2026-05-09 14:16 | 39.98874 | -82.66442 | 3987 ft | 138 kts | 274° |
| 2026-05-09 14:17 | 39.98976 | -82.67690 | 4014 ft | 147 kts | 272° |
| 2026-05-09 14:17 | 39.99070 | -82.69158 | 4061 ft | 178 kts | 271° |
| 2026-05-09 14:17 | 39.99169 | -82.70837 | 4018 ft | 185 kts | 272° |
| 2026-05-09 14:17 | 39.99269 | -82.72459 | 3985 ft | 173 kts | 272° |
| 2026-05-09 14:18 | 39.99361 | -82.73984 | 3961 ft | 164 kts | 271° |
| 2026-05-09 14:18 | 39.99446 | -82.75426 | 3975 ft | 155 kts | 271° |
| 2026-05-09 14:18 | 39.99525 | -82.76824 | 3811 ft | 158 kts | 271° |
| 2026-05-09 14:18 | 39.99606 | -82.78285 | 3516 ft | 166 kts | 271° |
| 2026-05-09 14:19 | 39.99694 | -82.79828 | 3132 ft | 173 kts | 271° |
| 2026-05-09 14:19 | 39.99784 | -82.81408 | 2727 ft | 178 kts | 271° |
| 2026-05-09 14:19 | 39.99875 | -82.82965 | 2143 ft | 171 kts | 272° |
| 2026-05-09 14:19 | 39.99964 | -82.84505 | 1539 ft | 167 kts | 273° |
| 2026-05-09 14:20 | 40.00046 | -82.85983 | 1025 ft | 159 kts | 274° |
| 2026-05-09 14:20 | 40.00123 | -82.87302 | 852 ft | 133 kts | 274° |
| 2026-05-09 14:20 | 40.00168 | -82.88385 | 822 ft | 107 kts | 272° |
| 2026-05-09 14:21 | 40.00273 | -82.89923 | 821 ft | 56 kts | 271° |
| 2026-05-09 14:21 | 40.00281 | -82.90197 | 821 ft | 19 kts | 275° |
| 2026-05-09 14:21 | 40.00290 | -82.90324 | 821 ft | 11 kts | 275° |
| 2026-05-09 14:21 | 40.00232 | -82.90364 | 821 ft | 8 kts | 149° |
| 2026-05-09 14:22 | 40.00228 | -82.90362 | 821 ft | 0 kts | 154° |
| 2026-05-09 14:22 | 40.00227 | -82.90361 | 821 ft | 2 kts | 154° |
| 2026-05-09 14:22 | 40.00212 | -82.90352 | 821 ft | 0 kts | 160° |
| 2026-05-09 14:22 | 40.00211 | -82.90351 | 821 ft | 1 kts | 162° |
| 2026-05-09 14:23 | 40.00197 | -82.90345 | 821 ft | 4 kts | 160° |
| 2026-05-09 14:23 | 40.00175 | -82.90307 | 821 ft | 8 kts | 97° |
| 2026-05-09 14:23 | 40.00174 | -82.90299 | 821 ft | 0 kts | 96° |
| 2026-05-09 14:23 | 40.00174 | -82.90297 | 821 ft | 1 kts | 96° |
| 2026-05-09 14:24 | 40.00172 | -82.90278 | 821 ft | 3 kts | 96° |
| 2026-05-09 14:24 | 40.00169 | -82.90240 | 821 ft | 6 kts | 95° |
| 2026-05-09 14:24 | 40.00166 | -82.90157 | 821 ft | 12 kts | 92° |
| 2026-05-09 14:24 | 40.00159 | -82.90018 | 821 ft | 19 kts | 94° |
| 2026-05-09 14:25 | 40.00149 | -82.89834 | 821 ft | 18 kts | 94° |
| 2026-05-09 14:25 | 40.00146 | -82.89771 | 821 ft | 3 kts | 94° |
| 2026-05-09 14:25 | 40.00142 | -82.89706 | 821 ft | 11 kts | 94° |
| 2026-05-09 14:25 | 40.00135 | -82.89568 | 821 ft | 19 kts | 94° |
| 2026-05-09 14:26 | 40.00125 | -82.89379 | 821 ft | 22 kts | 94° |
| 2026-05-09 14:26 | 40.00116 | -82.89213 | 821 ft | 16 kts | 94° |
| 2026-05-09 14:26 | 40.00109 | -82.89087 | 821 ft | 13 kts | 94° |
| 2026-05-09 14:26 | 40.00102 | -82.88966 | 821 ft | 13 kts | 94° |
| 2026-05-09 14:27 | 40.00095 | -82.88833 | 821 ft | 16 kts | 94° |
| 2026-05-09 14:27 | 40.00087 | -82.88675 | 821 ft | 19 kts | 94° |
| 2026-05-09 14:27 | 40.00078 | -82.88514 | 821 ft | 14 kts | 94° |
| 2026-05-09 14:27 | 40.00072 | -82.88431 | 821 ft | 4 kts | 110° |
| 2026-05-09 14:28 | 40.00061 | -82.88409 | 821 ft | 8 kts | 131° |
| 2026-05-09 14:28 | 39.99959 | -82.88373 | 821 ft | 12 kts | 177° |
| 2026-05-09 14:28 | 39.99923 | -82.88372 | 821 ft | 8 kts | 187° |
| 2026-05-09 14:28 | 39.99887 | -82.88379 | 821 ft | 4 kts | 189° |
| 2026-05-09 14:29 | 39.99861 | -82.88383 | 821 ft | 0 kts | 185° |
| 2026-05-09 14:29 | 39.99860 | -82.88383 | 821 ft | 0 kts | 185° |